createdAt,value
2023-04-23T00:00:48.983Z,20.54
2023-04-23T00:03:17.886Z,20.51
2023-04-23T00:05:46.854Z,20.51
2023-04-23T00:08:15.159Z,20.50
2023-04-23T00:10:43.518Z,20.50
2023-04-23T00:13:11.839Z,20.51
2023-04-23T00:15:40.178Z,20.51
2023-04-23T00:18:08.277Z,20.49
2023-04-23T00:20:37.036Z,20.47
2023-04-23T00:23:05.237Z,20.45
2023-04-23T00:25:33.234Z,20.43
2023-04-23T00:28:01.434Z,20.41
2023-04-23T00:30:29.850Z,20.45
2023-04-23T00:32:58.070Z,20.48
2023-04-23T00:35:26.283Z,20.48
2023-04-23T00:37:54.360Z,20.48
2023-04-23T00:40:23.696Z,20.46
2023-04-23T00:42:54.027Z,20.45
2023-04-23T00:45:22.233Z,20.42
2023-04-23T00:47:50.600Z,20.38
2023-04-23T00:50:18.973Z,20.38
2023-04-23T00:52:47.052Z,20.40
2023-04-23T00:55:15.237Z,20.43
2023-04-23T00:57:43.516Z,20.43
2023-04-23T01:00:14.219Z,20.39
2023-04-23T01:02:43.870Z,20.38
2023-04-23T01:05:12.556Z,20.37
2023-04-23T01:07:42.311Z,20.36
2023-04-23T01:10:11.506Z,20.36
2023-04-23T01:12:39.807Z,20.35
2023-04-23T01:15:09.187Z,20.33
2023-04-23T01:17:38.439Z,20.32
2023-04-23T01:20:08.484Z,20.28
2023-04-23T01:22:37.845Z,20.25
2023-04-23T01:25:08.100Z,20.23
2023-04-23T01:27:36.656Z,20.19
2023-04-23T01:30:06.131Z,20.16
2023-04-23T01:32:35.579Z,20.13
2023-04-23T01:35:04.855Z,20.08
2023-04-23T01:37:33.600Z,20.05
2023-04-23T01:40:01.744Z,20.05
2023-04-23T01:42:30.532Z,20.00
2023-04-23T01:44:58.631Z,20.01
2023-04-23T01:47:26.845Z,19.97
2023-04-23T01:49:55.436Z,19.94
2023-04-23T01:52:23.557Z,19.95
2023-04-23T01:57:07.501Z,18.76
2023-04-23T01:59:36.088Z,19.72
2023-04-23T02:02:04.549Z,19.87
2023-04-23T02:04:33.935Z,19.89
2023-04-23T02:07:02.288Z,19.88
2023-04-23T02:09:30.527Z,19.84
2023-04-23T02:12:02.369Z,19.79
2023-04-23T02:14:31.077Z,19.73
2023-04-23T02:16:59.257Z,19.68
2023-04-23T02:19:28.062Z,19.64
2023-04-23T02:21:56.470Z,19.62
2023-04-23T02:24:24.700Z,19.58
2023-04-23T02:26:52.999Z,19.54
2023-04-23T02:29:21.667Z,19.50
2023-04-23T02:31:50.009Z,19.46
2023-04-23T02:34:18.156Z,19.42
2023-04-23T02:36:46.394Z,19.37
2023-04-23T02:39:15.087Z,19.34
2023-04-23T02:41:43.379Z,19.33
2023-04-23T02:44:11.440Z,19.35
2023-04-23T02:46:39.487Z,19.26
2023-04-23T02:49:08.089Z,19.10
2023-04-23T02:51:36.469Z,19.06
2023-04-23T02:54:04.784Z,19.04
2023-04-23T02:56:33.129Z,19.03
2023-04-23T02:59:01.587Z,19.02
2023-04-23T03:01:30.090Z,18.99
2023-04-23T03:03:59.062Z,18.97
2023-04-23T03:06:27.418Z,18.95
2023-04-23T03:08:56.285Z,18.98
2023-04-23T03:11:24.311Z,19.09
2023-04-23T03:13:52.617Z,19.14
2023-04-23T03:16:20.712Z,19.15
2023-04-23T03:18:49.033Z,19.17
2023-04-23T03:21:17.497Z,19.19
2023-04-23T03:23:45.827Z,19.23
2023-04-23T03:26:13.900Z,19.25
2023-04-23T03:28:42.124Z,19.26
2023-04-23T03:31:10.477Z,19.25
2023-04-23T03:33:38.833Z,19.26
2023-04-23T03:36:07.844Z,19.27
2023-04-23T03:38:36.375Z,19.23
2023-04-23T03:41:05.319Z,19.17
2023-04-23T03:43:34.099Z,19.14
2023-04-23T03:46:05.149Z,19.14
2023-04-23T03:48:37.164Z,19.13
2023-04-23T03:51:08.979Z,19.13
2023-04-23T03:53:46.464Z,19.12
2023-04-23T03:56:34.106Z,19.16
2023-04-23T03:59:20.404Z,19.24
2023-04-23T04:01:50.338Z,19.29
2023-04-23T04:04:19.468Z,19.30
2023-04-23T04:06:49.859Z,19.31
2023-04-23T04:09:18.220Z,19.31
2023-04-23T04:11:46.400Z,19.32
2023-04-23T04:14:14.788Z,19.34
2023-04-23T04:16:42.950Z,19.37
2023-04-23T04:19:11.176Z,19.40
2023-04-23T04:21:39.410Z,19.40
2023-04-23T04:24:07.987Z,19.40
2023-04-23T04:26:36.162Z,19.44
2023-04-23T04:29:04.947Z,19.51
2023-04-23T04:31:33.131Z,19.58
2023-04-23T04:34:01.225Z,19.64
2023-04-23T04:36:29.780Z,19.71
2023-04-23T04:39:00.832Z,19.80
2023-04-23T04:41:29.097Z,19.92
2023-04-23T04:43:58.910Z,20.02
2023-04-23T04:46:29.430Z,20.13
2023-04-23T04:48:57.929Z,20.25
2023-04-23T04:51:27.435Z,20.37
2023-04-23T04:53:56.855Z,20.49
2023-04-23T04:56:26.035Z,20.61
2023-04-23T04:58:54.230Z,20.73
2023-04-23T05:01:24.813Z,20.86
2023-04-23T05:03:53.875Z,20.99
2023-04-23T05:06:22.318Z,21.14
2023-04-23T05:08:50.509Z,21.30
2023-04-23T05:11:18.609Z,21.59
2023-04-23T05:13:50.125Z,21.88
2023-04-23T05:16:18.464Z,22.18
2023-04-23T05:18:46.915Z,22.47
2023-04-23T05:21:16.004Z,22.69
2023-04-23T05:23:44.169Z,22.86
2023-04-23T05:26:12.550Z,23.02
2023-04-23T05:28:41.069Z,23.14
2023-04-23T05:31:09.295Z,23.26
2023-04-23T05:33:48.751Z,23.42
2023-04-23T05:36:18.876Z,23.60
2023-04-23T05:38:47.449Z,23.72
2023-04-23T05:41:16.329Z,23.79
2023-04-23T05:43:44.535Z,23.87
2023-04-23T05:46:12.722Z,23.97
2023-04-23T05:48:40.846Z,24.09
2023-04-23T05:51:09.072Z,24.20
2023-04-23T05:53:37.836Z,24.32
2023-04-23T05:56:06.248Z,24.45
2023-04-23T05:58:34.433Z,24.56
2023-04-23T06:01:03.174Z,24.65
2023-04-23T06:03:31.754Z,24.77
2023-04-23T06:06:00.767Z,24.88
2023-04-23T06:08:29.641Z,24.98
2023-04-23T06:10:58.262Z,25.06
2023-04-23T06:13:28.359Z,25.16
2023-04-23T06:15:56.704Z,25.28
2023-04-23T06:18:25.096Z,25.39
2023-04-23T06:20:53.362Z,25.50
2023-04-23T06:23:22.121Z,25.58
2023-04-23T06:25:50.345Z,25.65
2023-04-23T06:28:18.553Z,25.72
2023-04-23T06:31:06.485Z,25.79
2023-04-23T06:33:37.138Z,25.87
2023-04-23T06:36:05.882Z,25.92
2023-04-23T06:38:34.177Z,25.99
2023-04-23T06:41:02.856Z,26.15
2023-04-23T06:43:31.188Z,26.33
2023-04-23T06:46:31.595Z,26.61
2023-04-23T06:48:59.834Z,26.82
2023-04-23T06:51:28.108Z,26.98
2023-04-23T06:53:56.492Z,27.11
2023-04-23T06:56:24.772Z,27.28
2023-04-23T06:58:53.086Z,27.52
2023-04-23T07:01:22.934Z,27.99
2023-04-23T07:03:54.790Z,28.72
2023-04-23T07:06:23.107Z,29.56
2023-04-23T07:08:51.335Z,30.37
2023-04-23T07:11:19.691Z,31.13
2023-04-23T07:13:48.668Z,31.82
2023-04-23T07:16:17.203Z,32.37
2023-04-23T07:18:46.104Z,32.75
2023-04-23T07:21:14.351Z,32.94
2023-04-23T07:23:42.549Z,33.09
2023-04-23T07:26:10.790Z,33.22
2023-04-23T07:28:39.055Z,33.35
2023-04-23T07:31:08.174Z,33.14
2023-04-23T07:33:36.455Z,32.76
2023-04-23T07:36:04.608Z,32.93
2023-04-23T07:38:32.889Z,33.35
2023-04-23T07:41:01.419Z,33.58
2023-04-23T07:43:29.956Z,32.98
2023-04-23T07:45:58.355Z,31.77
2023-04-23T07:48:26.822Z,30.87
2023-04-23T07:50:55.264Z,30.46
2023-04-23T07:53:23.528Z,29.84
2023-04-23T07:55:52.690Z,29.45
2023-04-23T07:58:21.153Z,29.48
2023-04-23T08:00:49.310Z,29.63
2023-04-23T08:03:17.457Z,29.80
2023-04-23T08:05:45.849Z,29.97
2023-04-23T08:08:14.394Z,29.85
2023-04-23T08:10:43.373Z,29.63
2023-04-23T08:13:11.851Z,29.58
2023-04-23T08:15:40.109Z,29.67
2023-04-23T08:18:08.418Z,29.80
2023-04-23T08:20:36.782Z,29.87
2023-04-23T08:23:05.072Z,29.86
2023-04-23T08:25:33.563Z,29.82
2023-04-23T08:28:02.641Z,29.70
2023-04-23T08:30:31.126Z,29.10
2023-04-23T08:32:59.327Z,28.30
2023-04-23T08:35:27.768Z,27.92
2023-04-23T08:37:55.800Z,27.80
2023-04-23T08:40:24.442Z,27.61
2023-04-23T08:43:02.027Z,27.41
2023-04-23T08:45:31.045Z,27.43
2023-04-23T08:48:02.182Z,27.47
2023-04-23T08:50:31.262Z,27.33
2023-04-23T08:52:59.658Z,27.18
2023-04-23T08:55:27.860Z,27.18
2023-04-23T08:57:58.462Z,27.22
2023-04-23T09:00:26.565Z,27.11
2023-04-23T09:02:54.989Z,27.04
2023-04-23T09:05:23.505Z,27.17
2023-04-23T09:07:51.679Z,27.37
2023-04-23T09:10:19.958Z,27.51
2023-04-23T09:12:48.409Z,27.57
2023-04-23T09:15:16.912Z,27.64
2023-04-23T09:17:47.000Z,27.73
2023-04-23T09:20:15.690Z,27.76
2023-04-23T09:22:47.530Z,27.71
2023-04-23T09:25:18.087Z,27.51
2023-04-23T09:27:50.372Z,27.42
2023-04-23T09:30:18.966Z,27.44
2023-04-23T09:32:48.423Z,27.60
2023-04-23T09:35:17.711Z,27.71
2023-04-23T09:37:48.949Z,27.82
2023-04-23T09:40:22.796Z,27.87
2023-04-23T09:42:54.463Z,27.93
2023-04-23T09:45:25.445Z,28.08
2023-04-23T09:47:55.386Z,28.28
2023-04-23T09:50:32.844Z,28.38
2023-04-23T09:53:01.043Z,28.45
2023-04-23T09:55:38.958Z,28.54
2023-04-23T09:58:15.158Z,28.73
2023-04-23T10:00:43.572Z,28.94
2023-04-23T10:03:12.446Z,29.14
2023-04-23T10:06:00.330Z,29.28
2023-04-23T10:08:31.034Z,29.31
2023-04-23T10:11:10.028Z,29.33
2023-04-23T10:13:47.258Z,29.31
2023-04-23T10:16:23.317Z,29.22
2023-04-23T10:18:57.221Z,29.06
2023-04-23T10:21:33.994Z,28.97
2023-04-23T10:24:07.904Z,29.02
2023-04-23T10:26:38.957Z,28.92
2023-04-23T10:29:09.456Z,28.76
2023-04-23T10:31:37.988Z,28.68
2023-04-23T10:34:06.683Z,28.49
2023-04-23T10:36:35.433Z,28.25
2023-04-23T10:39:07.998Z,28.07
2023-04-23T10:41:38.141Z,27.87
2023-04-23T10:44:07.481Z,27.69
2023-04-23T10:46:38.546Z,27.59
2023-04-23T10:49:17.328Z,27.50
2023-04-23T10:54:20.901Z,27.35
2023-04-23T10:56:49.310Z,27.27
2023-04-23T10:59:21.505Z,27.20
2023-04-23T11:01:52.896Z,27.25
2023-04-23T11:04:25.386Z,27.47
2023-04-23T11:07:14.682Z,27.62
2023-04-23T11:09:47.666Z,27.67
2023-04-23T11:12:25.071Z,27.73
2023-04-23T11:14:54.921Z,27.74
2023-04-23T11:17:24.697Z,27.75
2023-04-23T11:20:20.405Z,27.64
2023-04-23T11:22:50.081Z,27.42
2023-04-23T11:25:28.229Z,27.32
2023-04-23T11:27:58.861Z,27.09
2023-04-23T11:30:30.893Z,26.77
2023-04-23T11:33:00.638Z,26.55
2023-04-23T11:35:30.721Z,26.35
2023-04-23T11:37:59.155Z,26.12
2023-04-23T11:40:31.153Z,25.98
2023-04-23T11:42:59.703Z,25.92
2023-04-23T11:45:29.286Z,25.91
2023-04-23T11:47:59.432Z,25.91
2023-04-23T11:50:30.179Z,25.86
2023-04-23T11:52:58.355Z,25.80
2023-04-23T11:55:26.709Z,25.74
2023-04-23T11:57:54.789Z,25.64
2023-04-23T12:00:29.132Z,25.50
2023-04-23T12:03:01.687Z,25.36
2023-04-23T12:05:38.335Z,25.26
2023-04-23T12:08:11.564Z,25.23
2023-04-23T12:10:52.115Z,25.24
2023-04-23T12:13:24.909Z,25.36
2023-04-23T12:15:58.291Z,25.51
2023-04-23T12:18:41.534Z,25.65
2023-04-23T12:21:10.759Z,25.79
2023-04-23T12:23:40.544Z,25.90
2023-04-23T12:26:12.815Z,26.01
2023-04-23T12:28:53.715Z,26.10
2023-04-23T12:31:23.283Z,26.18
2023-04-23T12:34:05.316Z,26.24
2023-04-23T12:36:36.429Z,26.31
2023-04-23T12:39:23.631Z,26.36
2023-04-23T12:42:05.594Z,26.42
2023-04-23T12:44:35.555Z,26.47
2023-04-23T12:47:11.662Z,26.51
2023-04-23T12:49:40.560Z,26.55
2023-04-23T12:52:10.046Z,26.60
2023-04-23T12:54:40.264Z,26.66
2023-04-23T12:57:11.318Z,26.70
2023-04-23T12:59:39.908Z,26.75
2023-04-23T13:02:08.578Z,26.79
2023-04-23T13:04:36.996Z,26.83
2023-04-23T13:07:05.267Z,26.88
2023-04-23T13:09:36.073Z,26.93
2023-04-23T13:12:04.442Z,26.99
2023-04-23T13:14:33.074Z,27.05
2023-04-23T13:17:02.773Z,27.12
2023-04-23T13:19:40.184Z,27.17
2023-04-23T13:22:08.730Z,27.24
2023-04-23T13:24:36.963Z,27.28
2023-04-23T13:27:05.183Z,27.34
2023-04-23T13:29:33.671Z,27.39
2023-04-23T13:32:01.885Z,27.43
2023-04-23T13:34:31.139Z,27.48
2023-04-23T13:37:00.542Z,27.53
2023-04-23T13:39:28.622Z,27.60
2023-04-23T13:42:08.969Z,27.67
2023-04-23T13:44:38.686Z,27.78
2023-04-23T13:47:07.120Z,27.88
2023-04-23T13:49:36.106Z,27.91
2023-04-23T13:52:06.942Z,27.90
2023-04-23T13:54:36.265Z,27.96
2023-04-23T13:57:04.924Z,28.02
2023-04-23T13:59:33.907Z,28.05
2023-04-23T14:02:01.948Z,28.04
2023-04-23T14:04:30.844Z,28.03
2023-04-23T14:06:59.136Z,28.01
2023-04-23T14:09:27.306Z,27.97
2023-04-23T14:11:56.433Z,27.92
2023-04-23T14:15:09.948Z,26.74
2023-04-23T14:17:40.756Z,27.67
2023-04-23T14:20:09.598Z,27.79
2023-04-23T14:22:37.897Z,27.85
2023-04-23T14:25:26.219Z,27.86
2023-04-23T14:27:55.941Z,27.87
2023-04-23T14:30:26.853Z,27.88
2023-04-23T14:32:56.812Z,27.85
2023-04-23T14:35:35.903Z,27.80
2023-04-23T14:38:08.530Z,27.80
2023-04-23T14:40:35.628Z,27.76
2023-04-23T14:43:14.420Z,27.70
2023-04-23T14:45:41.952Z,27.68
2023-04-23T14:48:08.858Z,27.68
2023-04-23T14:50:35.759Z,27.63
2023-04-23T14:53:09.145Z,27.48
2023-04-23T14:55:38.911Z,27.37
2023-04-23T14:58:06.578Z,27.35
2023-04-23T15:00:33.808Z,27.36
2023-04-23T15:03:03.020Z,27.37
2023-04-23T15:05:30.102Z,27.37
2023-04-23T15:07:56.927Z,27.35
2023-04-23T15:10:24.182Z,27.32
2023-04-23T15:12:56.954Z,27.28
2023-04-23T15:15:41.171Z,27.24
2023-04-23T15:18:13.686Z,27.18
2023-04-23T15:20:41.252Z,27.06
2023-04-23T15:23:08.204Z,26.93
2023-04-23T15:25:35.559Z,26.87
2023-04-23T15:28:02.910Z,26.82
2023-04-23T15:30:30.289Z,26.79
2023-04-23T15:32:57.618Z,26.77
2023-04-23T15:35:26.381Z,26.73
2023-04-23T15:37:57.373Z,26.70
2023-04-23T15:40:24.200Z,26.65
2023-04-23T15:42:51.170Z,26.62
2023-04-23T15:45:18.301Z,26.57
2023-04-23T15:47:45.430Z,26.54
2023-04-23T15:50:13.320Z,26.49
2023-04-23T15:52:41.902Z,26.42
2023-04-23T15:55:09.687Z,26.34
2023-04-23T15:57:36.844Z,26.27
2023-04-23T16:00:06.156Z,26.20
2023-04-23T16:03:04.867Z,26.16
2023-04-23T16:05:44.922Z,26.10
2023-04-23T16:08:12.029Z,26.06
2023-04-23T16:10:38.978Z,26.03
2023-04-23T16:13:06.643Z,26.00
2023-04-23T16:15:34.249Z,25.96
2023-04-23T16:18:01.120Z,25.91
2023-04-23T16:20:28.520Z,25.87
2023-04-23T16:22:55.757Z,25.83
2023-04-23T16:25:38.916Z,25.77
2023-04-23T16:28:15.067Z,25.71
2023-04-23T16:30:43.023Z,25.66
2023-04-23T16:33:10.327Z,25.61
2023-04-23T16:35:37.181Z,25.55
2023-04-23T16:38:03.992Z,25.48
2023-04-23T16:40:30.803Z,25.40
2023-04-23T16:42:57.774Z,25.31
2023-04-23T16:45:24.711Z,25.21
2023-04-23T16:47:51.612Z,25.13
2023-04-23T16:50:18.605Z,25.05
2023-04-23T16:52:45.649Z,24.97
2023-04-23T16:55:12.881Z,24.89
2023-04-23T16:57:39.704Z,24.80
2023-04-23T17:00:08.215Z,24.70
2023-04-23T17:02:35.454Z,24.58
2023-04-23T17:05:02.612Z,24.46
2023-04-23T17:07:29.391Z,24.34
2023-04-23T17:09:56.564Z,24.24
2023-04-23T17:12:23.579Z,24.14
2023-04-23T17:14:50.838Z,24.06
2023-04-23T17:17:17.868Z,23.98
2023-04-23T17:19:45.958Z,23.91
2023-04-23T17:22:12.814Z,23.83
2023-04-23T17:24:39.799Z,23.75
2023-04-23T17:27:06.873Z,23.67
2023-04-23T17:29:33.837Z,23.54
2023-04-23T17:32:02.965Z,23.35
2023-04-23T17:34:29.929Z,23.28
2023-04-23T17:36:56.912Z,23.37
2023-04-23T17:39:25.677Z,23.29
2023-04-23T17:41:52.752Z,22.99
2023-04-23T17:44:19.912Z,22.88
2023-04-23T17:46:46.953Z,22.81
2023-04-23T17:49:13.922Z,22.77
2023-04-23T17:51:40.850Z,22.79
2023-04-23T17:54:07.900Z,22.76
2023-04-23T17:56:34.816Z,22.67
2023-04-23T17:59:01.790Z,22.59
2023-04-23T18:01:29.000Z,22.54
2023-04-23T18:03:56.370Z,22.49
2023-04-23T18:06:23.753Z,22.43
2023-04-23T18:08:50.805Z,22.36
2023-04-23T18:11:18.735Z,22.27
2023-04-23T18:13:45.719Z,22.31
2023-04-23T18:16:12.569Z,22.42
2023-04-23T18:18:39.517Z,22.41
2023-04-23T18:21:06.459Z,22.34
2023-04-23T18:23:36.069Z,22.27
2023-04-23T18:26:03.039Z,22.21
2023-04-23T18:28:30.048Z,22.15
2023-04-23T18:31:02.584Z,22.07
2023-04-23T18:33:49.638Z,22.01
2023-04-23T18:36:47.028Z,21.92
2023-04-23T18:39:14.075Z,21.84
2023-04-23T18:41:41.248Z,21.76
2023-04-23T18:44:08.278Z,21.69
2023-04-23T18:46:35.226Z,21.64
2023-04-23T18:49:06.734Z,21.60
2023-04-23T18:51:38.191Z,21.55
2023-04-23T18:54:06.097Z,21.51
2023-04-23T18:56:33.877Z,21.45
2023-04-23T18:59:00.911Z,21.38
2023-04-23T19:01:28.644Z,21.31
2023-04-23T19:03:57.381Z,21.31
2023-04-23T19:06:24.927Z,21.34
2023-04-23T19:08:51.818Z,21.37
2023-04-23T19:11:18.815Z,21.38
2023-04-23T19:13:45.701Z,21.37
2023-04-23T19:16:12.832Z,21.36
2023-04-23T19:18:39.846Z,21.33
2023-04-23T19:21:07.015Z,21.27
2023-04-23T19:23:34.164Z,21.23
2023-04-23T19:26:01.934Z,21.26
2023-04-23T19:28:28.981Z,21.31
2023-04-23T19:30:56.180Z,21.35
2023-04-23T19:33:23.798Z,21.34
2023-04-23T19:35:51.045Z,21.29
2023-04-23T19:38:18.019Z,21.24
2023-04-23T19:40:45.251Z,21.19
2023-04-23T19:43:12.829Z,21.12
2023-04-23T19:45:39.874Z,21.05
2023-04-23T19:48:08.481Z,20.97
2023-04-23T19:50:35.937Z,20.89
2023-04-23T19:53:04.795Z,20.81
2023-04-23T19:55:31.790Z,20.74
2023-04-23T19:57:58.912Z,20.68
2023-04-23T20:00:26.838Z,20.64
2023-04-23T20:02:55.633Z,20.58
2023-04-23T20:05:23.106Z,20.52
2023-04-23T20:07:50.051Z,20.47
2023-04-23T20:10:17.600Z,20.42
2023-04-23T20:12:44.773Z,20.37
2023-04-23T20:15:12.754Z,20.32
2023-04-23T20:17:39.962Z,20.26
2023-04-23T20:20:09.499Z,20.23
2023-04-23T20:22:36.444Z,20.19
2023-04-23T20:25:03.711Z,20.13
2023-04-23T20:27:30.649Z,20.06
2023-04-23T20:29:57.677Z,20.00
2023-04-23T20:32:24.717Z,19.94
2023-04-23T20:34:52.747Z,19.89
2023-04-23T20:37:22.654Z,19.80
2023-04-23T20:39:50.192Z,19.71
2023-04-23T20:42:17.115Z,19.65
2023-04-23T20:44:45.737Z,19.59
2023-04-23T20:47:13.813Z,19.52
2023-04-23T20:49:41.158Z,19.47
2023-04-23T20:52:08.533Z,19.40
2023-04-23T20:54:36.402Z,19.34
2023-04-23T20:57:04.152Z,19.28
2023-04-23T20:59:31.413Z,19.23
2023-04-23T21:01:58.543Z,19.18
2023-04-23T21:04:25.728Z,19.15
2023-04-23T21:06:52.755Z,19.13
2023-04-23T21:09:19.799Z,19.10
2023-04-23T21:11:46.753Z,19.08
2023-04-23T21:14:13.692Z,19.05
2023-04-23T21:16:40.746Z,19.02
2023-04-23T21:19:07.801Z,18.97
2023-04-23T21:21:34.592Z,18.94
2023-04-23T21:24:01.688Z,18.90
2023-04-23T21:26:30.468Z,18.85
2023-04-23T21:28:57.435Z,18.79
2023-04-23T21:31:45.686Z,18.73
2023-04-23T21:34:14.278Z,18.65
2023-04-23T21:36:41.168Z,18.63
2023-04-23T21:39:08.119Z,18.61
2023-04-23T21:41:35.216Z,18.61
2023-04-23T21:44:02.092Z,18.57
2023-04-23T21:46:30.475Z,18.53
2023-04-23T21:48:58.688Z,18.51
2023-04-23T21:51:26.373Z,18.49
2023-04-23T21:53:53.204Z,18.46
2023-04-23T21:56:20.017Z,18.42
2023-04-23T21:58:46.890Z,18.38
2023-04-23T22:01:14.059Z,18.34
2023-04-23T22:03:43.730Z,18.30
2023-04-23T22:06:10.822Z,18.26
2023-04-23T22:08:38.269Z,18.21
2023-04-23T22:11:07.045Z,18.17
2023-04-23T22:13:34.814Z,18.12
2023-04-23T22:16:03.903Z,18.06
2023-04-23T22:18:33.349Z,17.99
2023-04-23T22:21:00.259Z,17.93
2023-04-23T22:23:28.436Z,17.89
2023-04-23T22:25:55.493Z,17.85
2023-04-23T22:28:22.442Z,17.82
2023-04-23T22:30:49.999Z,17.79
2023-04-23T22:33:16.947Z,17.76
2023-04-23T22:35:44.090Z,17.72
2023-04-23T22:38:10.956Z,17.67
2023-04-23T22:40:37.806Z,17.64
2023-04-23T22:43:04.711Z,17.61
2023-04-23T22:45:31.616Z,17.58
2023-04-23T22:47:58.438Z,17.55
2023-04-23T22:50:27.083Z,17.52
2023-04-23T22:52:53.944Z,17.50
2023-04-23T22:55:20.973Z,17.50
2023-04-23T22:57:47.863Z,17.49
2023-04-23T23:00:15.498Z,17.46
2023-04-23T23:02:42.565Z,17.44
2023-04-23T23:05:09.735Z,17.43
2023-04-23T23:07:36.964Z,17.42
2023-04-23T23:10:08.731Z,17.38
2023-04-23T23:12:36.792Z,17.34
2023-04-23T23:15:04.252Z,17.31
2023-04-23T23:17:31.381Z,17.27
2023-04-23T23:19:58.354Z,17.10
2023-04-23T23:22:27.153Z,16.90
2023-04-23T23:24:54.497Z,16.83
2023-04-23T23:27:21.449Z,16.80
2023-04-23T23:29:48.391Z,16.74
2023-04-23T23:32:15.537Z,16.66
2023-04-23T23:34:42.485Z,16.58
2023-04-23T23:37:09.430Z,16.56
2023-04-23T23:39:36.377Z,16.58
2023-04-23T23:42:03.454Z,16.55
2023-04-23T23:44:30.779Z,16.52
2023-04-23T23:46:58.059Z,16.50
2023-04-23T23:49:25.092Z,16.48
2023-04-23T23:51:52.134Z,16.47
2023-04-23T23:54:19.092Z,16.45
2023-04-23T23:56:45.931Z,16.42
2023-04-23T23:59:13.116Z,16.40
